sensor_id;sensor_type;location;lat;lon;timestamp;P1;durP1;ratioP1;P2;durP2;ratioP2
16866;SDS011;8550;52.596;13.320;2023-08-30T00:04:29;3.90;;;1.60;;
16866;SDS011;8550;52.596;13.320;2023-08-30T00:09:31;4.50;;;1.30;;
16866;SDS011;8550;52.596;13.320;2023-08-30T00:14:35;3.57;;;1.23;;
16866;SDS011;8550;52.596;13.320;2023-08-30T00:19:37;3.67;;;1.38;;
16866;SDS011;8550;52.596;13.320;2023-08-30T00:24:39;3.80;;;1.08;;
16866;SDS011;8550;52.596;13.320;2023-08-30T00:29:50;4.43;;;1.83;;
16866;SDS011;8550;52.596;13.320;2023-08-30T00:34:52;3.50;;;1.25;;
16866;SDS011;8550;52.596;13.320;2023-08-30T00:39:54;4.10;;;1.33;;
16866;SDS011;8550;52.596;13.320;2023-08-30T00:44:57;3.60;;;1.40;;
16866;SDS011;8550;52.596;13.320;2023-08-30T00:49:59;6.07;;;1.33;;
16866;SDS011;8550;52.596;13.320;2023-08-30T00:55:02;6.50;;;1.40;;
16866;SDS011;8550;52.596;13.320;2023-08-30T01:00:08;3.65;;;1.63;;
16866;SDS011;8550;52.596;13.320;2023-08-30T01:05:11;3.87;;;1.43;;
16866;SDS011;8550;52.596;13.320;2023-08-30T01:10:15;3.60;;;1.48;;
16866;SDS011;8550;52.596;13.320;2023-08-30T01:15:19;4.00;;;1.60;;
16866;SDS011;8550;52.596;13.320;2023-08-30T01:20:22;4.27;;;1.70;;
16866;SDS011;8550;52.596;13.320;2023-08-30T01:25:36;6.10;;;1.85;;
16866;SDS011;8550;52.596;13.320;2023-08-30T01:30:48;3.60;;;1.30;;
16866;SDS011;8550;52.596;13.320;2023-08-30T01:35:50;4.50;;;1.90;;
16866;SDS011;8550;52.596;13.320;2023-08-30T01:40:55;5.47;;;1.20;;
16866;SDS011;8550;52.596;13.320;2023-08-30T01:46:00;4.03;;;1.45;;
16866;SDS011;8550;52.596;13.320;2023-08-30T01:51:04;4.93;;;1.67;;
16866;SDS011;8550;52.596;13.320;2023-08-30T01:56:07;3.43;;;1.40;;
16866;SDS011;8550;52.596;13.320;2023-08-30T02:01:12;5.10;;;2.15;;
16866;SDS011;8550;52.596;13.320;2023-08-30T02:06:17;3.72;;;1.67;;
16866;SDS011;8550;52.596;13.320;2023-08-30T02:11:26;4.00;;;1.60;;
16866;SDS011;8550;52.596;13.320;2023-08-30T02:16:33;3.65;;;1.40;;
16866;SDS011;8550;52.596;13.320;2023-08-30T02:21:39;4.03;;;1.73;;
16866;SDS011;8550;52.596;13.320;2023-08-30T02:26:42;4.83;;;1.40;;
16866;SDS011;8550;52.596;13.320;2023-08-30T02:31:46;3.57;;;1.73;;
16866;SDS011;8550;52.596;13.320;2023-08-30T02:36:48;3.88;;;1.80;;
16866;SDS011;8550;52.596;13.320;2023-08-30T02:41:49;3.42;;;1.27;;
16866;SDS011;8550;52.596;13.320;2023-08-30T02:46:53;3.97;;;1.63;;
16866;SDS011;8550;52.596;13.320;2023-08-30T02:51:55;4.18;;;1.63;;
16866;SDS011;8550;52.596;13.320;2023-08-30T02:56:57;4.25;;;1.48;;
16866;SDS011;8550;52.596;13.320;2023-08-30T03:02:00;4.10;;;1.83;;
16866;SDS011;8550;52.596;13.320;2023-08-30T03:07:03;6.43;;;1.92;;
16866;SDS011;8550;52.596;13.320;2023-08-30T03:12:06;3.40;;;1.42;;
16866;SDS011;8550;52.596;13.320;2023-08-30T03:17:09;4.10;;;1.63;;
16866;SDS011;8550;52.596;13.320;2023-08-30T03:22:11;4.00;;;1.70;;
16866;SDS011;8550;52.596;13.320;2023-08-30T03:27:13;3.47;;;1.55;;
16866;SDS011;8550;52.596;13.320;2023-08-30T03:32:17;3.80;;;1.70;;
16866;SDS011;8550;52.596;13.320;2023-08-30T03:37:21;8.33;;;2.07;;
16866;SDS011;8550;52.596;13.320;2023-08-30T03:42:23;5.82;;;1.58;;
16866;SDS011;8550;52.596;13.320;2023-08-30T03:47:28;3.95;;;1.70;;
16866;SDS011;8550;52.596;13.320;2023-08-30T03:52:30;4.50;;;2.00;;
16866;SDS011;8550;52.596;13.320;2023-08-30T03:57:32;4.03;;;1.85;;
16866;SDS011;8550;52.596;13.320;2023-08-30T04:02:36;4.38;;;1.70;;
16866;SDS011;8550;52.596;13.320;2023-08-30T04:07:38;6.47;;;2.27;;
16866;SDS011;8550;52.596;13.320;2023-08-30T04:12:42;5.73;;;2.50;;
16866;SDS011;8550;52.596;13.320;2023-08-30T04:17:47;5.18;;;2.63;;
16866;SDS011;8550;52.596;13.320;2023-08-30T04:22:49;5.10;;;2.47;;
16866;SDS011;8550;52.596;13.320;2023-08-30T04:27:51;5.77;;;2.33;;
16866;SDS011;8550;52.596;13.320;2023-08-30T04:32:54;5.80;;;2.35;;
16866;SDS011;8550;52.596;13.320;2023-08-30T04:37:56;7.03;;;2.45;;
16866;SDS011;8550;52.596;13.320;2023-08-30T04:42:59;6.53;;;2.47;;
16866;SDS011;8550;52.596;13.320;2023-08-30T04:48:02;5.18;;;2.38;;
16866;SDS011;8550;52.596;13.320;2023-08-30T04:53:05;6.05;;;2.60;;
16866;SDS011;8550;52.596;13.320;2023-08-30T04:58:06;7.73;;;2.53;;
16866;SDS011;8550;52.596;13.320;2023-08-30T05:03:10;5.00;;;2.60;;
16866;SDS011;8550;52.596;13.320;2023-08-30T05:08:11;5.75;;;2.55;;
16866;SDS011;8550;52.596;13.320;2023-08-30T05:13:15;4.57;;;2.17;;
16866;SDS011;8550;52.596;13.320;2023-08-30T05:18:19;5.73;;;2.73;;
16866;SDS011;8550;52.596;13.320;2023-08-30T05:23:21;4.97;;;2.42;;
16866;SDS011;8550;52.596;13.320;2023-08-30T05:28:23;7.43;;;2.67;;
16866;SDS011;8550;52.596;13.320;2023-08-30T05:33:26;6.93;;;2.80;;
16866;SDS011;8550;52.596;13.320;2023-08-30T05:38:28;6.55;;;3.05;;
16866;SDS011;8550;52.596;13.320;2023-08-30T05:43:30;6.70;;;2.65;;
16866;SDS011;8550;52.596;13.320;2023-08-30T05:48:34;6.10;;;2.80;;
16866;SDS011;8550;52.596;13.320;2023-08-30T05:53:35;4.83;;;2.23;;
16866;SDS011;8550;52.596;13.320;2023-08-30T05:58:38;10.52;;;2.63;;
16866;SDS011;8550;52.596;13.320;2023-08-30T06:03:41;4.93;;;2.38;;
16866;SDS011;8550;52.596;13.320;2023-08-30T06:08:44;5.03;;;2.33;;
16866;SDS011;8550;52.596;13.320;2023-08-30T06:13:46;5.15;;;2.28;;
16866;SDS011;8550;52.596;13.320;2023-08-30T06:18:50;4.72;;;2.25;;
16866;SDS011;8550;52.596;13.320;2023-08-30T06:23:52;4.30;;;2.13;;
16866;SDS011;8550;52.596;13.320;2023-08-30T06:28:54;4.70;;;2.30;;
16866;SDS011;8550;52.596;13.320;2023-08-30T06:33:57;5.05;;;2.38;;
16866;SDS011;8550;52.596;13.320;2023-08-30T06:38:59;5.27;;;2.33;;
16866;SDS011;8550;52.596;13.320;2023-08-30T06:44:00;3.97;;;1.83;;
16866;SDS011;8550;52.596;13.320;2023-08-30T06:49:04;9.30;;;2.17;;
16866;SDS011;8550;52.596;13.320;2023-08-30T06:54:09;5.85;;;2.17;;
16866;SDS011;8550;52.596;13.320;2023-08-30T06:59:11;4.47;;;2.20;;
16866;SDS011;8550;52.596;13.320;2023-08-30T07:04:14;6.22;;;2.50;;
16866;SDS011;8550;52.596;13.320;2023-08-30T07:09:16;5.03;;;2.13;;
16866;SDS011;8550;52.596;13.320;2023-08-30T07:14:18;3.80;;;1.80;;
16866;SDS011;8550;52.596;13.320;2023-08-30T07:19:22;4.40;;;1.80;;
16866;SDS011;8550;52.596;13.320;2023-08-30T07:24:23;5.18;;;1.83;;
16866;SDS011;8550;52.596;13.320;2023-08-30T07:29:25;4.07;;;1.70;;
16866;SDS011;8550;52.596;13.320;2023-08-30T07:34:29;9.03;;;4.60;;
16866;SDS011;8550;52.596;13.320;2023-08-30T07:39:31;4.53;;;1.83;;
16866;SDS011;8550;52.596;13.320;2023-08-30T07:44:33;3.83;;;1.85;;
16866;SDS011;8550;52.596;13.320;2023-08-30T07:49:37;5.17;;;1.90;;
16866;SDS011;8550;52.596;13.320;2023-08-30T07:54:39;4.22;;;1.80;;
16866;SDS011;8550;52.596;13.320;2023-08-30T07:59:41;3.88;;;1.55;;
16866;SDS011;8550;52.596;13.320;2023-08-30T08:04:44;3.87;;;1.70;;
16866;SDS011;8550;52.596;13.320;2023-08-30T08:09:46;4.20;;;1.45;;
16866;SDS011;8550;52.596;13.320;2023-08-30T08:14:49;3.78;;;1.27;;
16866;SDS011;8550;52.596;13.320;2023-08-30T08:19:52;3.70;;;1.37;;
16866;SDS011;8550;52.596;13.320;2023-08-30T08:24:55;5.83;;;2.00;;
16866;SDS011;8550;52.596;13.320;2023-08-30T08:29:57;4.07;;;1.65;;
16866;SDS011;8550;52.596;13.320;2023-08-30T08:35:00;3.55;;;1.20;;
16866;SDS011;8550;52.596;13.320;2023-08-30T08:40:03;4.90;;;1.67;;
16866;SDS011;8550;52.596;13.320;2023-08-30T08:45:10;4.95;;;1.48;;
16866;SDS011;8550;52.596;13.320;2023-08-30T08:50:14;4.25;;;1.10;;
16866;SDS011;8550;52.596;13.320;2023-08-30T08:55:16;3.70;;;1.10;;
16866;SDS011;8550;52.596;13.320;2023-08-30T09:00:19;2.22;;;0.90;;
16866;SDS011;8550;52.596;13.320;2023-08-30T09:05:22;2.95;;;0.90;;
16866;SDS011;8550;52.596;13.320;2023-08-30T09:10:24;2.40;;;1.00;;
16866;SDS011;8550;52.596;13.320;2023-08-30T09:15:30;3.13;;;1.47;;
16866;SDS011;8550;52.596;13.320;2023-08-30T09:20:35;3.00;;;1.27;;
16866;SDS011;8550;52.596;13.320;2023-08-30T09:25:37;3.45;;;1.50;;
16866;SDS011;8550;52.596;13.320;2023-08-30T09:30:38;3.87;;;1.10;;
16866;SDS011;8550;52.596;13.320;2023-08-30T09:35:44;4.13;;;1.58;;
16866;SDS011;8550;52.596;13.320;2023-08-30T09:40:46;3.78;;;1.60;;
16866;SDS011;8550;52.596;13.320;2023-08-30T09:45:48;2.87;;;1.20;;
16866;SDS011;8550;52.596;13.320;2023-08-30T09:50:53;2.85;;;1.15;;
16866;SDS011;8550;52.596;13.320;2023-08-30T09:55:55;3.63;;;1.05;;
16866;SDS011;8550;52.596;13.320;2023-08-30T10:00:59;3.07;;;1.30;;
16866;SDS011;8550;52.596;13.320;2023-08-30T10:06:04;3.33;;;1.50;;
16866;SDS011;8550;52.596;13.320;2023-08-30T10:11:07;3.28;;;1.17;;
16866;SDS011;8550;52.596;13.320;2023-08-30T10:16:12;3.58;;;0.85;;
16866;SDS011;8550;52.596;13.320;2023-08-30T10:21:21;3.90;;;0.80;;
16866;SDS011;8550;52.596;13.320;2023-08-30T10:26:23;3.30;;;1.02;;
16866;SDS011;8550;52.596;13.320;2023-08-30T10:31:27;2.60;;;0.80;;
16866;SDS011;8550;52.596;13.320;2023-08-30T10:36:31;2.07;;;0.80;;
16866;SDS011;8550;52.596;13.320;2023-08-30T10:41:32;2.95;;;0.95;;
16866;SDS011;8550;52.596;13.320;2023-08-30T10:46:35;2.67;;;0.90;;
16866;SDS011;8550;52.596;13.320;2023-08-30T10:51:38;8.20;;;3.33;;
16866;SDS011;8550;52.596;13.320;2023-08-30T10:56:47;2.77;;;0.87;;
16866;SDS011;8550;52.596;13.320;2023-08-30T11:01:50;3.70;;;1.00;;
16866;SDS011;8550;52.596;13.320;2023-08-30T11:06:54;2.33;;;1.05;;
16866;SDS011;8550;52.596;13.320;2023-08-30T11:11:56;3.47;;;1.10;;
16866;SDS011;8550;52.596;13.320;2023-08-30T11:17:05;3.63;;;1.00;;
16866;SDS011;8550;52.596;13.320;2023-08-30T11:22:13;3.08;;;1.15;;
16866;SDS011;8550;52.596;13.320;2023-08-30T11:27:17;2.23;;;0.87;;
16866;SDS011;8550;52.596;13.320;2023-08-30T11:32:19;2.63;;;1.10;;
16866;SDS011;8550;52.596;13.320;2023-08-30T11:37:23;3.53;;;1.60;;
16866;SDS011;8550;52.596;13.320;2023-08-30T11:42:27;3.83;;;1.20;;
16866;SDS011;8550;52.596;13.320;2023-08-30T11:47:29;3.63;;;0.90;;
16866;SDS011;8550;52.596;13.320;2023-08-30T11:52:32;3.30;;;0.90;;
16866;SDS011;8550;52.596;13.320;2023-08-30T11:57:36;18.15;;;15.70;;
16866;SDS011;8550;52.596;13.320;2023-08-30T12:02:38;2.90;;;0.90;;
16866;SDS011;8550;52.596;13.320;2023-08-30T12:07:42;4.07;;;0.90;;
16866;SDS011;8550;52.596;13.320;2023-08-30T12:12:44;2.15;;;0.85;;
16866;SDS011;8550;52.596;13.320;2023-08-30T12:17:47;3.50;;;0.93;;
16866;SDS011;8550;52.596;13.320;2023-08-30T12:22:51;3.58;;;1.10;;
16866;SDS011;8550;52.596;13.320;2023-08-30T12:27:53;4.22;;;1.00;;
16866;SDS011;8550;52.596;13.320;2023-08-30T12:33:00;2.37;;;1.00;;
16866;SDS011;8550;52.596;13.320;2023-08-30T12:38:04;4.00;;;1.13;;
16866;SDS011;8550;52.596;13.320;2023-08-30T12:43:06;2.67;;;1.05;;
16866;SDS011;8550;52.596;13.320;2023-08-30T12:48:08;2.90;;;1.27;;
16866;SDS011;8550;52.596;13.320;2023-08-30T12:53:12;2.83;;;1.00;;
16866;SDS011;8550;52.596;13.320;2023-08-30T12:58:15;5.10;;;2.10;;
16866;SDS011;8550;52.596;13.320;2023-08-30T13:03:17;3.25;;;0.95;;
16866;SDS011;8550;52.596;13.320;2023-08-30T13:08:20;2.93;;;1.10;;
16866;SDS011;8550;52.596;13.320;2023-08-30T13:13:22;3.42;;;1.10;;
16866;SDS011;8550;52.596;13.320;2023-08-30T13:18:24;3.63;;;1.33;;
16866;SDS011;8550;52.596;13.320;2023-08-30T13:23:28;4.40;;;1.07;;
16866;SDS011;8550;52.596;13.320;2023-08-30T13:28:30;3.03;;;1.13;;
16866;SDS011;8550;52.596;13.320;2023-08-30T13:33:32;2.85;;;1.00;;
16866;SDS011;8550;52.596;13.320;2023-08-30T13:38:35;3.47;;;1.00;;
16866;SDS011;8550;52.596;13.320;2023-08-30T13:43:37;2.30;;;0.67;;
16866;SDS011;8550;52.596;13.320;2023-08-30T13:48:39;1.52;;;0.70;;
16866;SDS011;8550;52.596;13.320;2023-08-30T13:53:43;2.50;;;1.00;;
16866;SDS011;8550;52.596;13.320;2023-08-30T13:58:47;2.50;;;0.90;;
16866;SDS011;8550;52.596;13.320;2023-08-30T14:03:49;3.75;;;0.93;;
16866;SDS011;8550;52.596;13.320;2023-08-30T14:08:52;2.10;;;1.00;;
16866;SDS011;8550;52.596;13.320;2023-08-30T14:13:54;2.03;;;0.90;;
16866;SDS011;8550;52.596;13.320;2023-08-30T14:18:56;3.33;;;1.30;;
16866;SDS011;8550;52.596;13.320;2023-08-30T14:24:01;2.38;;;0.73;;
16866;SDS011;8550;52.596;13.320;2023-08-30T14:29:03;2.63;;;1.20;;
16866;SDS011;8550;52.596;13.320;2023-08-30T14:34:05;3.50;;;1.20;;
16866;SDS011;8550;52.596;13.320;2023-08-30T14:39:09;2.28;;;1.17;;
16866;SDS011;8550;52.596;13.320;2023-08-30T14:44:11;2.13;;;0.90;;
16866;SDS011;8550;52.596;13.320;2023-08-30T14:49:13;1.47;;;0.70;;
16866;SDS011;8550;52.596;13.320;2023-08-30T14:54:16;2.20;;;0.90;;
16866;SDS011;8550;52.596;13.320;2023-08-30T14:59:19;1.75;;;0.90;;
16866;SDS011;8550;52.596;13.320;2023-08-30T15:04:20;2.07;;;0.70;;
16866;SDS011;8550;52.596;13.320;2023-08-30T15:09:29;3.10;;;1.37;;
16866;SDS011;8550;52.596;13.320;2023-08-30T15:14:37;3.88;;;1.02;;
16866;SDS011;8550;52.596;13.320;2023-08-30T15:19:42;1.70;;;0.73;;
16866;SDS011;8550;52.596;13.320;2023-08-30T15:24:45;4.03;;;1.00;;
16866;SDS011;8550;52.596;13.320;2023-08-30T15:29:49;2.03;;;0.80;;
16866;SDS011;8550;52.596;13.320;2023-08-30T15:34:55;2.20;;;0.70;;
16866;SDS011;8550;52.596;13.320;2023-08-30T15:39:59;2.23;;;0.80;;
16866;SDS011;8550;52.596;13.320;2023-08-30T15:45:04;2.00;;;0.90;;
16866;SDS011;8550;52.596;13.320;2023-08-30T15:50:07;2.92;;;0.93;;
16866;SDS011;8550;52.596;13.320;2023-08-30T15:55:11;2.03;;;1.00;;
16866;SDS011;8550;52.596;13.320;2023-08-30T16:00:14;2.03;;;0.73;;
16866;SDS011;8550;52.596;13.320;2023-08-30T16:05:17;2.05;;;0.75;;
16866;SDS011;8550;52.596;13.320;2023-08-30T16:10:21;2.55;;;0.82;;
16866;SDS011;8550;52.596;13.320;2023-08-30T16:15:22;1.80;;;0.60;;
16866;SDS011;8550;52.596;13.320;2023-08-30T16:20:26;4.72;;;1.92;;
16866;SDS011;8550;52.596;13.320;2023-08-30T16:25:30;2.22;;;0.82;;
16866;SDS011;8550;52.596;13.320;2023-08-30T16:30:33;2.83;;;0.90;;
16866;SDS011;8550;52.596;13.320;2023-08-30T16:35:35;2.65;;;0.90;;
16866;SDS011;8550;52.596;13.320;2023-08-30T16:40:38;2.38;;;0.77;;
16866;SDS011;8550;52.596;13.320;2023-08-30T16:45:40;2.80;;;0.90;;
16866;SDS011;8550;52.596;13.320;2023-08-30T16:50:42;2.83;;;0.80;;
16866;SDS011;8550;52.596;13.320;2023-08-30T16:55:45;2.45;;;1.08;;
16866;SDS011;8550;52.596;13.320;2023-08-30T17:00:47;3.45;;;0.90;;
16866;SDS011;8550;52.596;13.320;2023-08-30T17:05:49;2.50;;;1.00;;
16866;SDS011;8550;52.596;13.320;2023-08-30T17:10:52;3.35;;;1.25;;
16866;SDS011;8550;52.596;13.320;2023-08-30T17:15:55;3.28;;;1.20;;
16866;SDS011;8550;52.596;13.320;2023-08-30T17:20:59;3.97;;;1.10;;
16866;SDS011;8550;52.596;13.320;2023-08-30T17:26:02;2.83;;;1.13;;
16866;SDS011;8550;52.596;13.320;2023-08-30T17:31:04;3.70;;;1.20;;
16866;SDS011;8550;52.596;13.320;2023-08-30T17:36:06;3.37;;;1.40;;
16866;SDS011;8550;52.596;13.320;2023-08-30T17:41:10;4.57;;;1.20;;
16866;SDS011;8550;52.596;13.320;2023-08-30T17:46:12;3.83;;;1.60;;
16866;SDS011;8550;52.596;13.320;2023-08-30T17:51:14;5.00;;;1.95;;
16866;SDS011;8550;52.596;13.320;2023-08-30T17:56:18;3.83;;;1.80;;
16866;SDS011;8550;52.596;13.320;2023-08-30T18:01:22;6.40;;;1.40;;
16866;SDS011;8550;52.596;13.320;2023-08-30T18:06:27;3.78;;;1.40;;
16866;SDS011;8550;52.596;13.320;2023-08-30T18:11:30;13.23;;;6.30;;
16866;SDS011;8550;52.596;13.320;2023-08-30T18:16:32;4.70;;;2.03;;
16866;SDS011;8550;52.596;13.320;2023-08-30T18:21:34;3.83;;;1.77;;
16866;SDS011;8550;52.596;13.320;2023-08-30T18:26:37;3.10;;;1.20;;
16866;SDS011;8550;52.596;13.320;2023-08-30T18:31:40;4.63;;;1.63;;
16866;SDS011;8550;52.596;13.320;2023-08-30T18:36:44;4.63;;;1.70;;
16866;SDS011;8550;52.596;13.320;2023-08-30T18:41:47;32.90;;;16.15;;
16866;SDS011;8550;52.596;13.320;2023-08-30T18:46:49;58.37;;;30.27;;
16866;SDS011;8550;52.596;13.320;2023-08-30T18:51:51;49.63;;;26.13;;
16866;SDS011;8550;52.596;13.320;2023-08-30T18:56:55;23.77;;;12.65;;
16866;SDS011;8550;52.596;13.320;2023-08-30T19:01:57;24.77;;;13.03;;
16866;SDS011;8550;52.596;13.320;2023-08-30T19:06:58;16.25;;;8.80;;
16866;SDS011;8550;52.596;13.320;2023-08-30T19:12:02;12.63;;;5.85;;
16866;SDS011;8550;52.596;13.320;2023-08-30T19:17:04;10.73;;;5.13;;
16866;SDS011;8550;52.596;13.320;2023-08-30T19:22:06;7.43;;;4.17;;
16866;SDS011;8550;52.596;13.320;2023-08-30T19:27:09;14.73;;;5.57;;
16866;SDS011;8550;52.596;13.320;2023-08-30T19:32:11;7.72;;;3.63;;
16866;SDS011;8550;52.596;13.320;2023-08-30T19:37:13;6.13;;;3.23;;
16866;SDS011;8550;52.596;13.320;2023-08-30T19:42:17;7.20;;;3.47;;
16866;SDS011;8550;52.596;13.320;2023-08-30T19:47:21;7.82;;;3.63;;
16866;SDS011;8550;52.596;13.320;2023-08-30T19:52:23;7.40;;;3.57;;
16866;SDS011;8550;52.596;13.320;2023-08-30T19:57:27;5.68;;;2.78;;
16866;SDS011;8550;52.596;13.320;2023-08-30T20:02:29;6.55;;;2.90;;
16866;SDS011;8550;52.596;13.320;2023-08-30T20:07:31;7.80;;;3.43;;
16866;SDS011;8550;52.596;13.320;2023-08-30T20:12:34;19.17;;;10.07;;
16866;SDS011;8550;52.596;13.320;2023-08-30T20:17:36;9.20;;;4.78;;
16866;SDS011;8550;52.596;13.320;2023-08-30T20:22:38;16.23;;;7.78;;
16866;SDS011;8550;52.596;13.320;2023-08-30T20:27:43;15.33;;;7.40;;
16866;SDS011;8550;52.596;13.320;2023-08-30T20:32:45;11.65;;;5.93;;
16866;SDS011;8550;52.596;13.320;2023-08-30T20:37:47;15.80;;;7.18;;
16866;SDS011;8550;52.596;13.320;2023-08-30T20:42:52;21.93;;;13.37;;
16866;SDS011;8550;52.596;13.320;2023-08-30T20:47:54;17.52;;;7.72;;
16866;SDS011;8550;52.596;13.320;2023-08-30T20:52:56;11.30;;;6.15;;
16866;SDS011;8550;52.596;13.320;2023-08-30T20:57:59;12.70;;;6.33;;
16866;SDS011;8550;52.596;13.320;2023-08-30T21:03:01;10.73;;;4.73;;
16866;SDS011;8550;52.596;13.320;2023-08-30T21:08:04;6.65;;;3.17;;
16866;SDS011;8550;52.596;13.320;2023-08-30T21:13:08;7.28;;;3.30;;
16866;SDS011;8550;52.596;13.320;2023-08-30T21:18:10;6.67;;;2.90;;
16866;SDS011;8550;52.596;13.320;2023-08-30T21:23:11;7.05;;;2.90;;
16866;SDS011;8550;52.596;13.320;2023-08-30T21:28:15;7.50;;;2.65;;
16866;SDS011;8550;52.596;13.320;2023-08-30T21:33:18;7.43;;;2.87;;
16866;SDS011;8550;52.596;13.320;2023-08-30T21:38:22;6.00;;;2.47;;
16866;SDS011;8550;52.596;13.320;2023-08-30T21:43:25;6.75;;;2.70;;
16866;SDS011;8550;52.596;13.320;2023-08-30T21:48:27;7.57;;;2.50;;
16866;SDS011;8550;52.596;13.320;2023-08-30T21:53:29;7.80;;;2.83;;
16866;SDS011;8550;52.596;13.320;2023-08-30T21:58:32;5.35;;;2.70;;
16866;SDS011;8550;52.596;13.320;2023-08-30T22:03:35;7.07;;;3.10;;
16866;SDS011;8550;52.596;13.320;2023-08-30T22:08:42;8.13;;;2.67;;
16866;SDS011;8550;52.596;13.320;2023-08-30T22:13:48;7.80;;;2.60;;
16866;SDS011;8550;52.596;13.320;2023-08-30T22:18:52;6.88;;;2.15;;
16866;SDS011;8550;52.596;13.320;2023-08-30T22:23:57;4.80;;;2.30;;
16866;SDS011;8550;52.596;13.320;2023-08-30T22:29:03;4.80;;;2.08;;
16866;SDS011;8550;52.596;13.320;2023-08-30T22:34:06;6.00;;;2.53;;
16866;SDS011;8550;52.596;13.320;2023-08-30T22:39:08;6.67;;;2.60;;
16866;SDS011;8550;52.596;13.320;2023-08-30T22:44:12;7.23;;;2.90;;
16866;SDS011;8550;52.596;13.320;2023-08-30T22:49:14;7.50;;;2.50;;
16866;SDS011;8550;52.596;13.320;2023-08-30T22:54:16;4.70;;;2.05;;
16866;SDS011;8550;52.596;13.320;2023-08-30T22:59:22;6.43;;;2.43;;
16866;SDS011;8550;52.596;13.320;2023-08-30T23:04:27;4.63;;;1.95;;
16866;SDS011;8550;52.596;13.320;2023-08-30T23:09:29;5.57;;;2.20;;
16866;SDS011;8550;52.596;13.320;2023-08-30T23:14:33;5.03;;;1.93;;
16866;SDS011;8550;52.596;13.320;2023-08-30T23:19:35;5.32;;;2.45;;
16866;SDS011;8550;52.596;13.320;2023-08-30T23:24:37;4.35;;;2.42;;
16866;SDS011;8550;52.596;13.320;2023-08-30T23:29:40;4.87;;;2.40;;
16866;SDS011;8550;52.596;13.320;2023-08-30T23:34:42;7.60;;;2.20;;
16866;SDS011;8550;52.596;13.320;2023-08-30T23:39:44;4.53;;;2.25;;
16866;SDS011;8550;52.596;13.320;2023-08-30T23:44:48;7.10;;;2.60;;
16866;SDS011;8550;52.596;13.320;2023-08-30T23:49:50;8.07;;;2.20;;
16866;SDS011;8550;52.596;13.320;2023-08-30T23:54:54;4.00;;;2.10;;
16866;SDS011;8550;52.596;13.320;2023-08-30T23:59:58;4.50;;;2.05;;
